首页
METAR-TAF:

METAR-TAF

机场 :

Golden, 不列颠哥伦比亚, 加拿大

纬度: 51-18N, 经度: 116-59W, 海拔: 785米

当前天气观测

该预报发布于51分钟前的20:00 UTC
风速8节,风向西北,有时为22节阵风,在西转西北之间变化
温度 7°C
湿度 29%
气压 1013 hPa
能見度: 32.2公里
散云层高于7000英尺
多云层高于11000英尺

METAR: CYGE 072000Z 31008G22KT 290V350 20SM SCT070 BKN110 07/M10 A2990 RMK CU3AC2 SLP147

时间: 14:51 (20:51 UTC)


TAF: 丢失

超过4000个机场的气象观测和天气预报(METAR&TAF报告)。

可查询的气象台以黄色和红色小点在地图上表示。

将鼠标移到小点上方,可查看气象台名称。

然后点击查看天气观测和预报。

如需切换地图:点击带黑十字的绿色按钮放大地图;点击带横线的绿色按钮缩小地图;或者点击绿色箭头查看邻近地区的地图。


METAR-TAF: